sensor_id;sensor_type;location;lat;lon;timestamp;P1;durP1;ratioP1;P2;durP2;ratioP2
72949;SDS011;64868;45.710;9.590;2023-10-13T00:00:30;27.80;;;14.73;;
72949;SDS011;64868;45.710;9.590;2023-10-13T00:03:03;26.80;;;15.48;;
72949;SDS011;64868;45.710;9.590;2023-10-13T00:05:42;20.40;;;13.55;;
72949;SDS011;64868;45.710;9.590;2023-10-13T00:08:12;22.08;;;12.30;;
72949;SDS011;64868;45.710;9.590;2023-10-13T00:10:45;24.83;;;12.45;;
72949;SDS011;64868;45.710;9.590;2023-10-13T00:13:15;23.02;;;13.82;;
72949;SDS011;64868;45.710;9.590;2023-10-13T00:15:47;19.83;;;12.35;;
72949;SDS011;64868;45.710;9.590;2023-10-13T00:18:24;27.45;;;13.00;;
72949;SDS011;64868;45.710;9.590;2023-10-13T00:21:04;23.33;;;13.68;;
72949;SDS011;64868;45.710;9.590;2023-10-13T00:23:41;23.83;;;12.75;;
72949;SDS011;64868;45.710;9.590;2023-10-13T00:26:23;20.40;;;12.10;;
72949;SDS011;64868;45.710;9.590;2023-10-13T00:29:00;27.40;;;13.88;;
72949;SDS011;64868;45.710;9.590;2023-10-13T00:31:32;26.00;;;12.18;;
72949;SDS011;64868;45.710;9.590;2023-10-13T00:34:04;20.50;;;11.73;;
72949;SDS011;64868;45.710;9.590;2023-10-13T00:36:52;23.25;;;12.32;;
72949;SDS011;64868;45.710;9.590;2023-10-13T00:39:41;20.13;;;12.52;;
72949;SDS011;64868;45.710;9.590;2023-10-13T00:42:14;22.75;;;13.05;;
72949;SDS011;64868;45.710;9.590;2023-10-13T00:44:48;24.92;;;14.45;;
72949;SDS011;64868;45.710;9.590;2023-10-13T00:47:21;25.35;;;14.07;;
72949;SDS011;64868;45.710;9.590;2023-10-13T00:50:04;27.50;;;15.15;;
72949;SDS011;64868;45.710;9.590;2023-10-13T00:52:38;24.70;;;14.18;;
72949;SDS011;64868;45.710;9.590;2023-10-13T00:55:09;25.00;;;13.65;;
72949;SDS011;64868;45.710;9.590;2023-10-13T00:57:43;26.33;;;14.07;;
72949;SDS011;64868;45.710;9.590;2023-10-13T01:00:16;27.67;;;14.95;;
72949;SDS011;64868;45.710;9.590;2023-10-13T01:02:46;25.52;;;15.57;;
72949;SDS011;64868;45.710;9.590;2023-10-13T01:05:23;21.92;;;13.00;;
72949;SDS011;64868;45.710;9.590;2023-10-13T01:07:54;26.17;;;15.85;;
72949;SDS011;64868;45.710;9.590;2023-10-13T01:10:25;24.73;;;14.55;;
72949;SDS011;64868;45.710;9.590;2023-10-13T01:12:59;23.17;;;13.32;;
72949;SDS011;64868;45.710;9.590;2023-10-13T01:15:29;30.42;;;15.45;;
72949;SDS011;64868;45.710;9.590;2023-10-13T01:18:08;20.25;;;11.98;;
72949;SDS011;64868;45.710;9.590;2023-10-13T01:20:41;25.08;;;12.43;;
72949;SDS011;64868;45.710;9.590;2023-10-13T01:23:14;27.30;;;13.15;;
72949;SDS011;64868;45.710;9.590;2023-10-13T01:25:51;27.00;;;13.18;;
72949;SDS011;64868;45.710;9.590;2023-10-13T01:28:24;21.50;;;11.85;;
72949;SDS011;64868;45.710;9.590;2023-10-13T01:30:56;25.15;;;12.60;;
72949;SDS011;64868;45.710;9.590;2023-10-13T01:33:27;22.83;;;13.05;;
72949;SDS011;64868;45.710;9.590;2023-10-13T01:35:59;22.58;;;13.68;;
72949;SDS011;64868;45.710;9.590;2023-10-13T01:38:34;22.58;;;11.32;;
72949;SDS011;64868;45.710;9.590;2023-10-13T01:41:08;22.00;;;11.82;;
72949;SDS011;64868;45.710;9.590;2023-10-13T01:43:40;25.67;;;12.18;;
72949;SDS011;64868;45.710;9.590;2023-10-13T01:46:13;20.48;;;11.45;;
72949;SDS011;64868;45.710;9.590;2023-10-13T01:48:40;23.00;;;12.75;;
72949;SDS011;64868;45.710;9.590;2023-10-13T01:51:12;29.70;;;14.77;;
72949;SDS011;64868;45.710;9.590;2023-10-13T01:53:48;24.20;;;13.43;;
72949;SDS011;64868;45.710;9.590;2023-10-13T01:56:23;23.35;;;12.07;;
72949;SDS011;64868;45.710;9.590;2023-10-13T01:58:57;22.05;;;11.57;;
72949;SDS011;64868;45.710;9.590;2023-10-13T02:01:33;21.88;;;11.90;;
72949;SDS011;64868;45.710;9.590;2023-10-13T02:04:05;24.02;;;13.10;;
72949;SDS011;64868;45.710;9.590;2023-10-13T02:06:37;27.77;;;13.95;;
72949;SDS011;64868;45.710;9.590;2023-10-13T02:09:10;28.17;;;14.00;;
72949;SDS011;64868;45.710;9.590;2023-10-13T02:11:44;24.75;;;13.98;;
72949;SDS011;64868;45.710;9.590;2023-10-13T02:14:14;22.60;;;13.25;;
72949;SDS011;64868;45.710;9.590;2023-10-13T02:16:47;28.17;;;14.60;;
72949;SDS011;64868;45.710;9.590;2023-10-13T02:19:18;23.40;;;12.85;;
72949;SDS011;64868;45.710;9.590;2023-10-13T02:21:50;26.23;;;12.63;;
72949;SDS011;64868;45.710;9.590;2023-10-13T02:24:26;21.55;;;11.25;;
72949;SDS011;64868;45.710;9.590;2023-10-13T02:26:57;17.05;;;10.68;;
72949;SDS011;64868;45.710;9.590;2023-10-13T02:29:32;24.63;;;12.85;;
72949;SDS011;64868;45.710;9.590;2023-10-13T02:32:07;30.27;;;13.85;;
72949;SDS011;64868;45.710;9.590;2023-10-13T02:34:45;29.63;;;14.55;;
72949;SDS011;64868;45.710;9.590;2023-10-13T02:37:13;25.38;;;12.80;;
72949;SDS011;64868;45.710;9.590;2023-10-13T02:39:46;24.52;;;12.65;;
72949;SDS011;64868;45.710;9.590;2023-10-13T02:42:16;23.10;;;12.30;;
72949;SDS011;64868;45.710;9.590;2023-10-13T02:44:50;20.95;;;11.27;;
72949;SDS011;64868;45.710;9.590;2023-10-13T02:47:21;21.90;;;12.02;;
72949;SDS011;64868;45.710;9.590;2023-10-13T02:49:54;23.08;;;12.55;;
72949;SDS011;64868;45.710;9.590;2023-10-13T02:52:28;23.30;;;12.85;;
72949;SDS011;64868;45.710;9.590;2023-10-13T02:55:01;21.08;;;11.45;;
72949;SDS011;64868;45.710;9.590;2023-10-13T02:57:33;23.83;;;13.80;;
72949;SDS011;64868;45.710;9.590;2023-10-13T03:00:04;21.67;;;12.43;;
72949;SDS011;64868;45.710;9.590;2023-10-13T03:02:42;23.02;;;12.63;;
72949;SDS011;64868;45.710;9.590;2023-10-13T03:05:21;19.77;;;11.18;;
72949;SDS011;64868;45.710;9.590;2023-10-13T03:07:51;23.67;;;12.15;;
72949;SDS011;64868;45.710;9.590;2023-10-13T03:10:24;21.80;;;11.48;;
72949;SDS011;64868;45.710;9.590;2023-10-13T03:12:54;21.35;;;11.18;;
72949;SDS011;64868;45.710;9.590;2023-10-13T03:15:24;20.17;;;11.60;;
72949;SDS011;64868;45.710;9.590;2023-10-13T03:18:00;20.48;;;11.73;;
72949;SDS011;64868;45.710;9.590;2023-10-13T03:20:33;22.05;;;12.50;;
72949;SDS011;64868;45.710;9.590;2023-10-13T03:23:03;22.25;;;12.40;;
72949;SDS011;64868;45.710;9.590;2023-10-13T03:25:37;16.25;;;9.75;;
72949;SDS011;64868;45.710;9.590;2023-10-13T03:28:16;19.85;;;10.85;;
72949;SDS011;64868;45.710;9.590;2023-10-13T03:30:48;26.38;;;12.95;;
72949;SDS011;64868;45.710;9.590;2023-10-13T03:33:21;21.58;;;11.63;;
72949;SDS011;64868;45.710;9.590;2023-10-13T03:35:54;21.88;;;11.95;;
72949;SDS011;64868;45.710;9.590;2023-10-13T03:38:26;23.38;;;12.13;;
72949;SDS011;64868;45.710;9.590;2023-10-13T03:40:56;21.65;;;11.35;;
72949;SDS011;64868;45.710;9.590;2023-10-13T03:43:39;20.67;;;11.02;;
72949;SDS011;64868;45.710;9.590;2023-10-13T03:46:13;22.92;;;11.30;;
72949;SDS011;64868;45.710;9.590;2023-10-13T03:48:48;24.98;;;12.13;;
72949;SDS011;64868;45.710;9.590;2023-10-13T03:53:58;22.17;;;10.95;;
72949;SDS011;64868;45.710;9.590;2023-10-13T03:56:35;20.55;;;11.60;;
72949;SDS011;64868;45.710;9.590;2023-10-13T03:59:08;20.65;;;10.98;;
72949;SDS011;64868;45.710;9.590;2023-10-13T04:01:48;22.17;;;11.40;;
72949;SDS011;64868;45.710;9.590;2023-10-13T04:04:24;23.45;;;11.07;;
72949;SDS011;64868;45.710;9.590;2023-10-13T04:07:01;23.80;;;12.32;;
72949;SDS011;64868;45.710;9.590;2023-10-13T04:09:35;21.42;;;11.57;;
72949;SDS011;64868;45.710;9.590;2023-10-13T04:12:14;23.17;;;11.77;;
72949;SDS011;64868;45.710;9.590;2023-10-13T04:15:00;21.15;;;11.77;;
72949;SDS011;64868;45.710;9.590;2023-10-13T04:17:33;20.60;;;11.23;;
72949;SDS011;64868;45.710;9.590;2023-10-13T04:20:13;19.27;;;11.05;;
72949;SDS011;64868;45.710;9.590;2023-10-13T04:22:55;21.80;;;10.13;;
72949;SDS011;64868;45.710;9.590;2023-10-13T04:25:28;22.85;;;11.63;;
72949;SDS011;64868;45.710;9.590;2023-10-13T04:28:14;19.45;;;10.48;;
72949;SDS011;64868;45.710;9.590;2023-10-13T04:30:47;22.60;;;11.15;;
72949;SDS011;64868;45.710;9.590;2023-10-13T04:33:33;23.80;;;11.65;;
72949;SDS011;64868;45.710;9.590;2023-10-13T04:36:07;21.42;;;10.98;;
72949;SDS011;64868;45.710;9.590;2023-10-13T04:38:47;20.35;;;11.00;;
72949;SDS011;64868;45.710;9.590;2023-10-13T04:41:28;21.83;;;11.65;;
72949;SDS011;64868;45.710;9.590;2023-10-13T04:46:56;28.02;;;11.98;;
72949;SDS011;64868;45.710;9.590;2023-10-13T04:49:27;25.35;;;12.38;;
72949;SDS011;64868;45.710;9.590;2023-10-13T04:52:11;29.20;;;12.77;;
72949;SDS011;64868;45.710;9.590;2023-10-13T04:55:01;24.13;;;12.00;;
72949;SDS011;64868;45.710;9.590;2023-10-13T04:57:59;19.33;;;10.88;;
72949;SDS011;64868;45.710;9.590;2023-10-13T05:00:38;17.65;;;10.05;;
72949;SDS011;64868;45.710;9.590;2023-10-13T05:03:43;29.08;;;11.57;;
72949;SDS011;64868;45.710;9.590;2023-10-13T05:06:45;22.20;;;10.20;;
72949;SDS011;64868;45.710;9.590;2023-10-13T05:09:32;20.38;;;10.90;;
72949;SDS011;64868;45.710;9.590;2023-10-13T05:12:18;22.42;;;11.25;;
72949;SDS011;64868;45.710;9.590;2023-10-13T05:15:06;21.50;;;11.65;;
72949;SDS011;64868;45.710;9.590;2023-10-13T05:18:12;20.27;;;9.98;;
72949;SDS011;64868;45.710;9.590;2023-10-13T05:21:01;17.45;;;10.27;;
72949;SDS011;64868;45.710;9.590;2023-10-13T05:23:47;20.88;;;10.18;;
72949;SDS011;64868;45.710;9.590;2023-10-13T05:26:34;20.10;;;10.40;;
72949;SDS011;64868;45.710;9.590;2023-10-13T05:29:22;21.50;;;10.27;;
72949;SDS011;64868;45.710;9.590;2023-10-13T05:32:09;19.83;;;9.38;;
72949;SDS011;64868;45.710;9.590;2023-10-13T05:34:57;23.55;;;10.50;;
72949;SDS011;64868;45.710;9.590;2023-10-13T05:37:46;22.92;;;11.55;;
72949;SDS011;64868;45.710;9.590;2023-10-13T05:40:30;17.95;;;10.18;;
72949;SDS011;64868;45.710;9.590;2023-10-13T05:43:19;20.27;;;9.82;;
72949;SDS011;64868;45.710;9.590;2023-10-13T05:48:54;20.05;;;8.90;;
72949;SDS011;64868;45.710;9.590;2023-10-13T05:51:30;19.88;;;9.70;;
72949;SDS011;64868;45.710;9.590;2023-10-13T05:54:09;17.73;;;9.27;;
72949;SDS011;64868;45.710;9.590;2023-10-13T05:56:46;20.35;;;9.20;;
72949;SDS011;64868;45.710;9.590;2023-10-13T05:59:34;16.40;;;8.95;;
72949;SDS011;64868;45.710;9.590;2023-10-13T06:02:23;16.75;;;8.70;;
72949;SDS011;64868;45.710;9.590;2023-10-13T06:05:10;21.23;;;9.98;;
72949;SDS011;64868;45.710;9.590;2023-10-13T06:07:57;18.83;;;9.90;;
72949;SDS011;64868;45.710;9.590;2023-10-13T06:10:46;23.42;;;10.25;;
72949;SDS011;64868;45.710;9.590;2023-10-13T06:13:33;20.67;;;9.18;;
72949;SDS011;64868;45.710;9.590;2023-10-13T06:16:21;20.98;;;10.07;;
72949;SDS011;64868;45.710;9.590;2023-10-13T06:19:10;21.90;;;9.82;;
72949;SDS011;64868;45.710;9.590;2023-10-13T06:21:54;26.27;;;10.35;;
72949;SDS011;64868;45.710;9.590;2023-10-13T06:24:43;19.40;;;9.40;;
72949;SDS011;64868;45.710;9.590;2023-10-13T06:27:29;20.48;;;9.80;;
72949;SDS011;64868;45.710;9.590;2023-10-13T06:30:15;20.25;;;9.85;;
72949;SDS011;64868;45.710;9.590;2023-10-13T06:32:45;21.25;;;9.70;;
72949;SDS011;64868;45.710;9.590;2023-10-13T06:35:18;19.90;;;10.73;;
72949;SDS011;64868;45.710;9.590;2023-10-13T06:37:51;18.98;;;9.27;;
72949;SDS011;64868;45.710;9.590;2023-10-13T06:40:24;22.40;;;10.35;;
72949;SDS011;64868;45.710;9.590;2023-10-13T06:43:00;19.55;;;9.68;;
72949;SDS011;64868;45.710;9.590;2023-10-13T06:45:43;22.52;;;9.52;;
72949;SDS011;64868;45.710;9.590;2023-10-13T06:48:31;19.08;;;9.02;;
72949;SDS011;64868;45.710;9.590;2023-10-13T06:51:03;17.63;;;9.38;;
72949;SDS011;64868;45.710;9.590;2023-10-13T06:53:54;25.70;;;10.75;;
72949;SDS011;64868;45.710;9.590;2023-10-13T06:56:26;21.15;;;10.05;;
72949;SDS011;64868;45.710;9.590;2023-10-13T06:58:59;23.65;;;10.68;;
72949;SDS011;64868;45.710;9.590;2023-10-13T07:01:34;20.70;;;9.40;;
72949;SDS011;64868;45.710;9.590;2023-10-13T07:04:09;19.55;;;9.88;;
72949;SDS011;64868;45.710;9.590;2023-10-13T07:06:43;21.85;;;10.02;;
72949;SDS011;64868;45.710;9.590;2023-10-13T07:09:19;22.42;;;10.25;;
72949;SDS011;64868;45.710;9.590;2023-10-13T07:12:04;20.63;;;9.68;;
72949;SDS011;64868;45.710;9.590;2023-10-13T07:14:44;22.38;;;10.52;;
72949;SDS011;64868;45.710;9.590;2023-10-13T07:17:26;18.55;;;9.02;;
72949;SDS011;64868;45.710;9.590;2023-10-13T07:20:00;19.08;;;9.57;;
72949;SDS011;64868;45.710;9.590;2023-10-13T07:22:42;16.10;;;9.00;;
72949;SDS011;64868;45.710;9.590;2023-10-13T07:25:22;21.02;;;9.50;;
72949;SDS011;64868;45.710;9.590;2023-10-13T07:27:53;16.13;;;8.38;;
72949;SDS011;64868;45.710;9.590;2023-10-13T07:30:26;20.73;;;8.63;;
72949;SDS011;64868;45.710;9.590;2023-10-13T07:32:58;18.25;;;8.18;;
72949;SDS011;64868;45.710;9.590;2023-10-13T07:35:32;16.98;;;7.00;;
72949;SDS011;64868;45.710;9.590;2023-10-13T07:38:05;15.07;;;8.05;;
72949;SDS011;64868;45.710;9.590;2023-10-13T07:40:36;20.10;;;8.88;;
72949;SDS011;64868;45.710;9.590;2023-10-13T07:43:15;19.60;;;9.30;;
72949;SDS011;64868;45.710;9.590;2023-10-13T07:45:48;20.77;;;7.90;;
72949;SDS011;64868;45.710;9.590;2023-10-13T07:48:21;20.38;;;8.05;;
72949;SDS011;64868;45.710;9.590;2023-10-13T07:51:02;17.90;;;8.25;;
72949;SDS011;64868;45.710;9.590;2023-10-13T07:53:43;17.15;;;7.75;;
72949;SDS011;64868;45.710;9.590;2023-10-13T07:56:16;18.60;;;8.30;;
72949;SDS011;64868;45.710;9.590;2023-10-13T07:58:49;19.17;;;9.20;;
72949;SDS011;64868;45.710;9.590;2023-10-13T08:01:37;18.38;;;9.23;;
72949;SDS011;64868;45.710;9.590;2023-10-13T08:04:10;18.83;;;9.25;;
72949;SDS011;64868;45.710;9.590;2023-10-13T08:06:39;21.58;;;8.88;;
72949;SDS011;64868;45.710;9.590;2023-10-13T08:09:10;15.40;;;7.43;;
72949;SDS011;64868;45.710;9.590;2023-10-13T08:12:07;15.18;;;7.68;;
72949;SDS011;64868;45.710;9.590;2023-10-13T08:14:46;24.95;;;8.60;;
72949;SDS011;64868;45.710;9.590;2023-10-13T08:17:16;18.58;;;8.25;;
72949;SDS011;64868;45.710;9.590;2023-10-13T08:19:52;16.00;;;8.23;;
72949;SDS011;64868;45.710;9.590;2023-10-13T08:22:25;15.82;;;7.80;;
72949;SDS011;64868;45.710;9.590;2023-10-13T08:25:03;23.10;;;8.32;;
72949;SDS011;64868;45.710;9.590;2023-10-13T08:27:45;17.98;;;8.02;;
72949;SDS011;64868;45.710;9.590;2023-10-13T08:30:18;14.93;;;8.20;;
72949;SDS011;64868;45.710;9.590;2023-10-13T08:32:57;16.92;;;8.20;;
72949;SDS011;64868;45.710;9.590;2023-10-13T08:35:44;22.67;;;9.73;;
72949;SDS011;64868;45.710;9.590;2023-10-13T08:38:43;16.90;;;8.23;;
72949;SDS011;64868;45.710;9.590;2023-10-13T08:41:22;16.98;;;7.28;;
72949;SDS011;64868;45.710;9.590;2023-10-13T08:43:56;16.90;;;8.15;;
72949;SDS011;64868;45.710;9.590;2023-10-13T08:46:30;15.38;;;7.55;;
72949;SDS011;64868;45.710;9.590;2023-10-13T08:49:26;21.08;;;7.95;;
72949;SDS011;64868;45.710;9.590;2023-10-13T08:51:57;15.82;;;7.65;;
72949;SDS011;64868;45.710;9.590;2023-10-13T08:54:54;21.58;;;8.00;;
72949;SDS011;64868;45.710;9.590;2023-10-13T08:57:44;16.05;;;7.22;;
72949;SDS011;64868;45.710;9.590;2023-10-13T09:00:19;15.98;;;6.97;;
72949;SDS011;64868;45.710;9.590;2023-10-13T09:03:16;15.35;;;7.57;;
72949;SDS011;64868;45.710;9.590;2023-10-13T09:06:11;18.45;;;7.93;;
72949;SDS011;64868;45.710;9.590;2023-10-13T09:08:46;19.77;;;8.80;;
72949;SDS011;64868;45.710;9.590;2023-10-13T09:11:31;17.88;;;8.02;;
72949;SDS011;64868;45.710;9.590;2023-10-13T09:14:17;16.95;;;8.55;;
72949;SDS011;64868;45.710;9.590;2023-10-13T09:17:16;18.20;;;8.20;;
72949;SDS011;64868;45.710;9.590;2023-10-13T09:19:51;19.73;;;8.43;;
72949;SDS011;64868;45.710;9.590;2023-10-13T09:22:38;15.30;;;8.50;;
72949;SDS011;64868;45.710;9.590;2023-10-13T09:25:10;21.95;;;9.10;;
72949;SDS011;64868;45.710;9.590;2023-10-13T09:27:48;17.75;;;8.73;;
72949;SDS011;64868;45.710;9.590;2023-10-13T09:30:19;18.02;;;8.65;;
72949;SDS011;64868;45.710;9.590;2023-10-13T09:33:03;18.92;;;9.50;;
72949;SDS011;64868;45.710;9.590;2023-10-13T09:35:34;16.00;;;9.00;;
72949;SDS011;64868;45.710;9.590;2023-10-13T09:38:04;16.75;;;8.93;;
72949;SDS011;64868;45.710;9.590;2023-10-13T09:40:38;18.70;;;8.48;;
72949;SDS011;64868;45.710;9.590;2023-10-13T09:43:14;23.25;;;10.25;;
72949;SDS011;64868;45.710;9.590;2023-10-13T09:45:50;20.95;;;10.02;;
72949;SDS011;64868;45.710;9.590;2023-10-13T09:48:38;22.63;;;10.68;;
72949;SDS011;64868;45.710;9.590;2023-10-13T09:51:14;19.23;;;9.45;;
72949;SDS011;64868;45.710;9.590;2023-10-13T09:54:03;24.17;;;9.57;;
72949;SDS011;64868;45.710;9.590;2023-10-13T09:56:38;19.20;;;8.55;;
72949;SDS011;64868;45.710;9.590;2023-10-13T09:59:17;19.05;;;9.02;;
72949;SDS011;64868;45.710;9.590;2023-10-13T10:01:50;22.17;;;9.00;;
72949;SDS011;64868;45.710;9.590;2023-10-13T10:04:27;15.93;;;7.90;;
72949;SDS011;64868;45.710;9.590;2023-10-13T10:07:00;20.23;;;8.73;;
72949;SDS011;64868;45.710;9.590;2023-10-13T10:09:28;21.52;;;9.70;;
72949;SDS011;64868;45.710;9.590;2023-10-13T10:17:57;24.65;;;8.35;;
72949;SDS011;64868;45.710;9.590;2023-10-13T10:20:33;21.83;;;8.25;;
72949;SDS011;64868;45.710;9.590;2023-10-13T10:23:25;16.73;;;8.45;;
72949;SDS011;64868;45.710;9.590;2023-10-13T10:26:16;18.42;;;8.20;;
72949;SDS011;64868;45.710;9.590;2023-10-13T10:28:47;15.43;;;7.47;;
72949;SDS011;64868;45.710;9.590;2023-10-13T10:31:20;21.30;;;7.50;;
72949;SDS011;64868;45.710;9.590;2023-10-13T10:34:10;21.58;;;8.27;;
72949;SDS011;64868;45.710;9.590;2023-10-13T10:36:53;16.85;;;7.68;;
72949;SDS011;64868;45.710;9.590;2023-10-13T10:39:32;16.75;;;7.57;;
72949;SDS011;64868;45.710;9.590;2023-10-13T10:42:15;17.27;;;7.20;;
72949;SDS011;64868;45.710;9.590;2023-10-13T10:44:50;17.50;;;7.20;;
72949;SDS011;64868;45.710;9.590;2023-10-13T10:47:20;17.55;;;7.78;;
72949;SDS011;64868;45.710;9.590;2023-10-13T10:52:42;16.38;;;7.57;;
72949;SDS011;64868;45.710;9.590;2023-10-13T10:55:19;17.98;;;7.72;;
72949;SDS011;64868;45.710;9.590;2023-10-13T10:57:58;14.05;;;8.00;;
72949;SDS011;64868;45.710;9.590;2023-10-13T11:00:33;19.50;;;7.82;;
72949;SDS011;64868;45.710;9.590;2023-10-13T11:03:24;16.58;;;7.47;;
72949;SDS011;64868;45.710;9.590;2023-10-13T11:05:54;14.82;;;7.47;;
72949;SDS011;64868;45.710;9.590;2023-10-13T11:08:26;16.95;;;7.03;;
72949;SDS011;64868;45.710;9.590;2023-10-13T11:11:03;14.10;;;7.68;;
72949;SDS011;64868;45.710;9.590;2023-10-13T11:13:42;14.15;;;7.63;;
72949;SDS011;64868;45.710;9.590;2023-10-13T11:16:21;16.15;;;7.43;;
72949;SDS011;64868;45.710;9.590;2023-10-13T11:19:04;15.68;;;8.27;;
72949;SDS011;64868;45.710;9.590;2023-10-13T11:21:38;14.93;;;7.55;;
72949;SDS011;64868;45.710;9.590;2023-10-13T11:24:06;16.10;;;7.72;;
72949;SDS011;64868;45.710;9.590;2023-10-13T11:26:39;15.10;;;6.75;;
72949;SDS011;64868;45.710;9.590;2023-10-13T11:29:19;18.17;;;7.57;;
72949;SDS011;64868;45.710;9.590;2023-10-13T11:32:05;15.50;;;6.07;;
72949;SDS011;64868;45.710;9.590;2023-10-13T11:34:39;16.13;;;5.78;;
72949;SDS011;64868;45.710;9.590;2023-10-13T11:37:09;13.13;;;5.75;;
72949;SDS011;64868;45.710;9.590;2023-10-13T11:40:05;16.13;;;7.20;;
72949;SDS011;64868;45.710;9.590;2023-10-13T11:42:39;13.63;;;6.65;;
72949;SDS011;64868;45.710;9.590;2023-10-13T11:45:14;16.48;;;7.28;;
72949;SDS011;64868;45.710;9.590;2023-10-13T11:47:59;14.75;;;6.18;;
72949;SDS011;64868;45.710;9.590;2023-10-13T11:50:29;13.90;;;5.90;;
72949;SDS011;64868;45.710;9.590;2023-10-13T11:53:02;13.77;;;6.22;;
72949;SDS011;64868;45.710;9.590;2023-10-13T11:55:32;9.95;;;4.80;;
72949;SDS011;64868;45.710;9.590;2023-10-13T11:58:05;14.60;;;6.53;;
72949;SDS011;64868;45.710;9.590;2023-10-13T12:00:34;16.05;;;5.72;;
72949;SDS011;64868;45.710;9.590;2023-10-13T12:03:23;11.32;;;4.28;;
72949;SDS011;64868;45.710;9.590;2023-10-13T12:06:12;12.65;;;4.60;;
72949;SDS011;64868;45.710;9.590;2023-10-13T12:09:04;12.98;;;5.38;;
72949;SDS011;64868;45.710;9.590;2023-10-13T12:11:48;12.57;;;5.55;;
72949;SDS011;64868;45.710;9.590;2023-10-13T12:14:21;11.75;;;5.32;;
72949;SDS011;64868;45.710;9.590;2023-10-13T12:17:04;16.80;;;5.43;;
72949;SDS011;64868;45.710;9.590;2023-10-13T12:19:34;12.55;;;5.07;;
72949;SDS011;64868;45.710;9.590;2023-10-13T12:22:06;26.00;;;5.53;;
72949;SDS011;64868;45.710;9.590;2023-10-13T12:24:44;13.25;;;4.78;;
72949;SDS011;64868;45.710;9.590;2023-10-13T12:27:20;11.70;;;4.97;;
72949;SDS011;64868;45.710;9.590;2023-10-13T12:29:53;14.07;;;5.18;;
72949;SDS011;64868;45.710;9.590;2023-10-13T12:32:26;11.95;;;5.00;;
72949;SDS011;64868;45.710;9.590;2023-10-13T12:35:02;12.98;;;5.60;;
72949;SDS011;64868;45.710;9.590;2023-10-13T12:37:29;11.98;;;4.45;;
72949;SDS011;64868;45.710;9.590;2023-10-13T12:40:09;13.57;;;4.80;;
72949;SDS011;64868;45.710;9.590;2023-10-13T12:43:01;11.48;;;4.35;;
72949;SDS011;64868;45.710;9.590;2023-10-13T12:45:50;10.88;;;3.92;;
72949;SDS011;64868;45.710;9.590;2023-10-13T12:48:38;13.50;;;4.85;;
72949;SDS011;64868;45.710;9.590;2023-10-13T12:51:23;12.65;;;4.40;;
72949;SDS011;64868;45.710;9.590;2023-10-13T12:54:00;10.93;;;4.75;;
72949;SDS011;64868;45.710;9.590;2023-10-13T12:56:40;11.23;;;4.85;;
72949;SDS011;64868;45.710;9.590;2023-10-13T12:59:13;9.23;;;3.90;;
72949;SDS011;64868;45.710;9.590;2023-10-13T13:01:46;10.27;;;4.95;;
72949;SDS011;64868;45.710;9.590;2023-10-13T13:04:16;13.50;;;5.22;;
72949;SDS011;64868;45.710;9.590;2023-10-13T13:06:52;10.52;;;4.80;;
72949;SDS011;64868;45.710;9.590;2023-10-13T13:09:23;16.77;;;5.55;;
72949;SDS011;64868;45.710;9.590;2023-10-13T13:11:54;14.18;;;5.90;;
72949;SDS011;64868;45.710;9.590;2023-10-13T13:14:27;12.07;;;5.80;;
72949;SDS011;64868;45.710;9.590;2023-10-13T13:16:55;14.15;;;5.82;;
72949;SDS011;64868;45.710;9.590;2023-10-13T13:19:37;12.23;;;5.65;;
72949;SDS011;64868;45.710;9.590;2023-10-13T13:22:08;12.88;;;5.88;;
72949;SDS011;64868;45.710;9.590;2023-10-13T13:24:44;12.60;;;5.68;;
72949;SDS011;64868;45.710;9.590;2023-10-13T13:27:15;20.40;;;5.93;;
72949;SDS011;64868;45.710;9.590;2023-10-13T13:29:47;14.98;;;5.00;;
72949;SDS011;64868;45.710;9.590;2023-10-13T13:32:19;13.07;;;5.82;;
72949;SDS011;64868;45.710;9.590;2023-10-13T13:34:51;17.55;;;4.90;;
72949;SDS011;64868;45.710;9.590;2023-10-13T13:37:24;10.98;;;5.00;;
72949;SDS011;64868;45.710;9.590;2023-10-13T13:39:57;16.55;;;6.30;;
72949;SDS011;64868;45.710;9.590;2023-10-13T13:42:39;16.45;;;6.38;;
72949;SDS011;64868;45.710;9.590;2023-10-13T13:45:16;13.00;;;5.70;;
72949;SDS011;64868;45.710;9.590;2023-10-13T13:47:54;14.70;;;8.05;;
72949;SDS011;64868;45.710;9.590;2023-10-13T13:50:25;13.20;;;7.75;;
72949;SDS011;64868;45.710;9.590;2023-10-13T13:53:05;15.30;;;6.80;;
72949;SDS011;64868;45.710;9.590;2023-10-13T13:55:41;13.57;;;6.80;;
72949;SDS011;64868;45.710;9.590;2023-10-13T13:58:11;14.88;;;6.15;;
72949;SDS011;64868;45.710;9.590;2023-10-13T14:00:41;13.05;;;7.00;;
72949;SDS011;64868;45.710;9.590;2023-10-13T14:03:13;15.55;;;8.05;;
72949;SDS011;64868;45.710;9.590;2023-10-13T14:05:59;14.85;;;7.10;;
72949;SDS011;64868;45.710;9.590;2023-10-13T14:08:33;15.88;;;7.30;;
72949;SDS011;64868;45.710;9.590;2023-10-13T14:11:05;14.13;;;6.85;;
72949;SDS011;64868;45.710;9.590;2023-10-13T14:13:49;15.82;;;7.47;;
72949;SDS011;64868;45.710;9.590;2023-10-13T14:16:26;10.93;;;5.78;;
72949;SDS011;64868;45.710;9.590;2023-10-13T14:18:56;11.80;;;6.15;;
72949;SDS011;64868;45.710;9.590;2023-10-13T14:21:26;13.45;;;6.22;;
72949;SDS011;64868;45.710;9.590;2023-10-13T14:23:59;16.15;;;6.07;;
72949;SDS011;64868;45.710;9.590;2023-10-13T14:26:28;12.50;;;5.88;;
72949;SDS011;64868;45.710;9.590;2023-10-13T14:29:00;16.58;;;6.65;;
72949;SDS011;64868;45.710;9.590;2023-10-13T14:31:41;13.98;;;5.90;;
72949;SDS011;64868;45.710;9.590;2023-10-13T14:34:09;11.40;;;5.47;;
72949;SDS011;64868;45.710;9.590;2023-10-13T14:36:39;14.23;;;5.50;;
72949;SDS011;64868;45.710;9.590;2023-10-13T14:39:15;10.43;;;5.28;;
72949;SDS011;64868;45.710;9.590;2023-10-13T14:41:48;12.52;;;5.78;;
72949;SDS011;64868;45.710;9.590;2023-10-13T14:44:14;11.85;;;6.00;;
72949;SDS011;64868;45.710;9.590;2023-10-13T14:46:43;12.80;;;5.22;;
72949;SDS011;64868;45.710;9.590;2023-10-13T14:49:14;13.57;;;6.30;;
72949;SDS011;64868;45.710;9.590;2023-10-13T14:51:44;16.75;;;7.07;;
72949;SDS011;64868;45.710;9.590;2023-10-13T14:54:17;10.68;;;5.43;;
72949;SDS011;64868;45.710;9.590;2023-10-13T14:56:56;15.32;;;5.28;;
72949;SDS011;64868;45.710;9.590;2023-10-13T14:59:26;13.60;;;6.25;;
72949;SDS011;64868;45.710;9.590;2023-10-13T15:02:06;12.40;;;5.20;;
72949;SDS011;64868;45.710;9.590;2023-10-13T15:04:33;16.75;;;5.60;;
72949;SDS011;64868;45.710;9.590;2023-10-13T15:07:04;11.77;;;5.43;;
72949;SDS011;64868;45.710;9.590;2023-10-13T15:09:36;12.70;;;5.03;;
72949;SDS011;64868;45.710;9.590;2023-10-13T15:12:10;13.27;;;5.72;;
72949;SDS011;64868;45.710;9.590;2023-10-13T15:14:42;14.02;;;5.82;;
72949;SDS011;64868;45.710;9.590;2023-10-13T15:17:15;13.38;;;5.82;;
72949;SDS011;64868;45.710;9.590;2023-10-13T15:19:45;14.25;;;5.70;;
72949;SDS011;64868;45.710;9.590;2023-10-13T15:22:18;10.10;;;5.10;;
72949;SDS011;64868;45.710;9.590;2023-10-13T15:24:55;13.40;;;5.93;;
72949;SDS011;64868;45.710;9.590;2023-10-13T15:27:36;12.98;;;5.75;;
72949;SDS011;64868;45.710;9.590;2023-10-13T15:30:09;11.98;;;6.38;;
72949;SDS011;64868;45.710;9.590;2023-10-13T15:32:45;15.82;;;6.10;;
72949;SDS011;64868;45.710;9.590;2023-10-13T15:35:18;14.77;;;5.78;;
72949;SDS011;64868;45.710;9.590;2023-10-13T15:37:50;17.30;;;5.97;;
72949;SDS011;64868;45.710;9.590;2023-10-13T15:40:20;14.75;;;5.85;;
72949;SDS011;64868;45.710;9.590;2023-10-13T15:42:51;20.30;;;6.53;;